sensor_id;sensor_type;location;lat;lon;timestamp;P1;durP1;ratioP1;P2;durP2;ratioP2
37049;SDS011;22958;51.232;6.826;2023-07-28T00:00:56;5.67;;;2.40;;
37049;SDS011;22958;51.232;6.826;2023-07-28T00:03:22;3.33;;;1.77;;
37049;SDS011;22958;51.232;6.826;2023-07-28T00:05:47;4.30;;;2.30;;
37049;SDS011;22958;51.232;6.826;2023-07-28T00:08:13;5.13;;;2.20;;
37049;SDS011;22958;51.232;6.826;2023-07-28T00:10:42;2.57;;;2.13;;
37049;SDS011;22958;51.232;6.826;2023-07-28T00:13:08;5.18;;;2.10;;
37049;SDS011;22958;51.232;6.826;2023-07-28T00:15:34;4.50;;;1.90;;
37049;SDS011;22958;51.232;6.826;2023-07-28T00:17:59;2.30;;;1.80;;
37049;SDS011;22958;51.232;6.826;2023-07-28T00:20:26;3.58;;;2.15;;
37049;SDS011;22958;51.232;6.826;2023-07-28T00:22:52;4.13;;;2.10;;
37049;SDS011;22958;51.232;6.826;2023-07-28T00:25:18;3.40;;;2.13;;
37049;SDS011;22958;51.232;6.826;2023-07-28T00:27:43;6.50;;;2.50;;
37049;SDS011;22958;51.232;6.826;2023-07-28T00:30:09;2.93;;;1.97;;
37049;SDS011;22958;51.232;6.826;2023-07-28T00:35:01;5.68;;;2.30;;
37049;SDS011;22958;51.232;6.826;2023-07-28T00:37:27;3.40;;;1.90;;
37049;SDS011;22958;51.232;6.826;2023-07-28T00:39:52;5.73;;;2.27;;
37049;SDS011;22958;51.232;6.826;2023-07-28T00:42:18;3.63;;;2.30;;
37049;SDS011;22958;51.232;6.826;2023-07-28T00:44:43;3.20;;;2.13;;
37049;SDS011;22958;51.232;6.826;2023-07-28T00:47:09;3.03;;;2.10;;
37049;SDS011;22958;51.232;6.826;2023-07-28T00:49:34;6.00;;;2.27;;
37049;SDS011;22958;51.232;6.826;2023-07-28T00:52:00;6.73;;;2.00;;
37049;SDS011;22958;51.232;6.826;2023-07-28T00:54:26;6.40;;;2.30;;
37049;SDS011;22958;51.232;6.826;2023-07-28T00:56:51;5.83;;;2.30;;
37049;SDS011;22958;51.232;6.826;2023-07-28T00:59:17;2.93;;;1.80;;
37049;SDS011;22958;51.232;6.826;2023-07-28T01:01:43;3.58;;;2.00;;
37049;SDS011;22958;51.232;6.826;2023-07-28T01:04:09;11.57;;;2.90;;
37049;SDS011;22958;51.232;6.826;2023-07-28T01:06:44;7.20;;;2.67;;
37049;SDS011;22958;51.232;6.826;2023-07-28T01:09:19;8.23;;;2.40;;
37049;SDS011;22958;51.232;6.826;2023-07-28T01:11:53;8.68;;;2.22;;
37049;SDS011;22958;51.232;6.826;2023-07-28T01:14:19;3.70;;;2.47;;
37049;SDS011;22958;51.232;6.826;2023-07-28T01:16:45;6.23;;;2.77;;
37049;SDS011;22958;51.232;6.826;2023-07-28T01:19:10;3.53;;;2.13;;
37049;SDS011;22958;51.232;6.826;2023-07-28T01:21:37;4.53;;;2.50;;
37049;SDS011;22958;51.232;6.826;2023-07-28T01:26:49;5.72;;;2.83;;
37049;SDS011;22958;51.232;6.826;2023-07-28T01:34:11;4.03;;;2.92;;
37049;SDS011;22958;51.232;6.826;2023-07-28T01:36:36;8.60;;;3.47;;
37049;SDS011;22958;51.232;6.826;2023-07-28T01:39:02;12.83;;;3.57;;
37049;SDS011;22958;51.232;6.826;2023-07-28T01:41:27;7.33;;;2.70;;
37049;SDS011;22958;51.232;6.826;2023-07-28T01:43:53;10.00;;;3.30;;
37049;SDS011;22958;51.232;6.826;2023-07-28T01:46:20;4.20;;;3.00;;
37049;SDS011;22958;51.232;6.826;2023-07-28T01:48:46;9.17;;;3.53;;
37049;SDS011;22958;51.232;6.826;2023-07-28T01:51:11;7.07;;;3.80;;
37049;SDS011;22958;51.232;6.826;2023-07-28T01:53:37;7.57;;;3.83;;
37049;SDS011;22958;51.232;6.826;2023-07-28T01:56:02;7.93;;;4.03;;
37049;SDS011;22958;51.232;6.826;2023-07-28T01:58:28;8.03;;;3.70;;
37049;SDS011;22958;51.232;6.826;2023-07-28T02:00:54;5.07;;;3.77;;
37049;SDS011;22958;51.232;6.826;2023-07-28T02:03:19;9.93;;;4.30;;
37049;SDS011;22958;51.232;6.826;2023-07-28T02:05:44;8.93;;;4.57;;
37049;SDS011;22958;51.232;6.826;2023-07-28T02:08:10;6.67;;;4.17;;
37049;SDS011;22958;51.232;6.826;2023-07-28T02:10:36;7.00;;;4.30;;
37049;SDS011;22958;51.232;6.826;2023-07-28T02:13:01;7.37;;;4.43;;
37049;SDS011;22958;51.232;6.826;2023-07-28T02:15:27;8.87;;;3.70;;
37049;SDS011;22958;51.232;6.826;2023-07-28T02:17:52;6.47;;;3.93;;
37049;SDS011;22958;51.232;6.826;2023-07-28T02:20:18;8.70;;;4.87;;
37049;SDS011;22958;51.232;6.826;2023-07-28T02:22:43;6.60;;;4.60;;
37049;SDS011;22958;51.232;6.826;2023-07-28T02:25:09;9.77;;;4.53;;
37049;SDS011;22958;51.232;6.826;2023-07-28T02:27:36;6.28;;;4.80;;
37049;SDS011;22958;51.232;6.826;2023-07-28T02:30:05;11.90;;;4.78;;
37049;SDS011;22958;51.232;6.826;2023-07-28T02:32:31;12.40;;;5.47;;
37049;SDS011;22958;51.232;6.826;2023-07-28T02:34:58;8.27;;;4.75;;
37049;SDS011;22958;51.232;6.826;2023-07-28T02:37:24;9.13;;;4.80;;
37049;SDS011;22958;51.232;6.826;2023-07-28T02:39:49;6.70;;;4.70;;
37049;SDS011;22958;51.232;6.826;2023-07-28T02:42:15;5.50;;;4.30;;
37049;SDS011;22958;51.232;6.826;2023-07-28T02:44:40;9.43;;;4.83;;
37049;SDS011;22958;51.232;6.826;2023-07-28T02:47:06;8.13;;;4.93;;
37049;SDS011;22958;51.232;6.826;2023-07-28T02:49:32;6.53;;;4.67;;
37049;SDS011;22958;51.232;6.826;2023-07-28T02:51:57;9.10;;;5.37;;
37049;SDS011;22958;51.232;6.826;2023-07-28T02:54:23;7.43;;;5.20;;
37049;SDS011;22958;51.232;6.826;2023-07-28T02:56:50;10.98;;;4.95;;
37049;SDS011;22958;51.232;6.826;2023-07-28T02:59:15;8.03;;;5.03;;
37049;SDS011;22958;51.232;6.826;2023-07-28T03:01:41;9.43;;;5.20;;
37049;SDS011;22958;51.232;6.826;2023-07-28T03:04:07;6.03;;;4.60;;
37049;SDS011;22958;51.232;6.826;2023-07-28T03:06:32;8.13;;;5.43;;
37049;SDS011;22958;51.232;6.826;2023-07-28T03:08:58;10.23;;;5.03;;
37049;SDS011;22958;51.232;6.826;2023-07-28T03:11:24;7.35;;;5.15;;
37049;SDS011;22958;51.232;6.826;2023-07-28T03:13:50;5.83;;;4.33;;
37049;SDS011;22958;51.232;6.826;2023-07-28T03:16:15;8.30;;;5.07;;
37049;SDS011;22958;51.232;6.826;2023-07-28T03:18:41;9.87;;;5.80;;
37049;SDS011;22958;51.232;6.826;2023-07-28T03:21:08;8.53;;;5.90;;
37049;SDS011;22958;51.232;6.826;2023-07-28T03:23:33;8.48;;;5.15;;
37049;SDS011;22958;51.232;6.826;2023-07-28T03:25:59;7.27;;;5.10;;
37049;SDS011;22958;51.232;6.826;2023-07-28T03:28:24;13.00;;;6.50;;
37049;SDS011;22958;51.232;6.826;2023-07-28T03:30:50;14.23;;;6.03;;
37049;SDS011;22958;51.232;6.826;2023-07-28T03:33:15;7.93;;;6.03;;
37049;SDS011;22958;51.232;6.826;2023-07-28T03:35:41;7.40;;;5.40;;
37049;SDS011;22958;51.232;6.826;2023-07-28T03:38:06;11.73;;;5.90;;
37049;SDS011;22958;51.232;6.826;2023-07-28T03:40:32;7.27;;;5.30;;
37049;SDS011;22958;51.232;6.826;2023-07-28T03:42:57;9.40;;;5.93;;
37049;SDS011;22958;51.232;6.826;2023-07-28T03:45:23;8.93;;;5.83;;
37049;SDS011;22958;51.232;6.826;2023-07-28T03:47:49;8.90;;;5.13;;
37049;SDS011;22958;51.232;6.826;2023-07-28T03:50:14;10.30;;;5.43;;
37049;SDS011;22958;51.232;6.826;2023-07-28T03:52:40;6.93;;;4.97;;
37049;SDS011;22958;51.232;6.826;2023-07-28T03:55:05;8.63;;;4.67;;
37049;SDS011;22958;51.232;6.826;2023-07-28T03:57:31;9.13;;;4.23;;
37049;SDS011;22958;51.232;6.826;2023-07-28T03:59:57;8.23;;;4.50;;
37049;SDS011;22958;51.232;6.826;2023-07-28T04:02:22;5.97;;;4.30;;
37049;SDS011;22958;51.232;6.826;2023-07-28T04:04:52;5.50;;;4.27;;
37049;SDS011;22958;51.232;6.826;2023-07-28T04:07:19;5.55;;;4.40;;
37049;SDS011;22958;51.232;6.826;2023-07-28T04:09:45;5.70;;;4.47;;
37049;SDS011;22958;51.232;6.826;2023-07-28T04:12:10;8.47;;;4.70;;
37049;SDS011;22958;51.232;6.826;2023-07-28T04:14:36;8.60;;;4.43;;
37049;SDS011;22958;51.232;6.826;2023-07-28T04:17:01;5.70;;;4.03;;
37049;SDS011;22958;51.232;6.826;2023-07-28T04:19:27;5.57;;;3.80;;
37049;SDS011;22958;51.232;6.826;2023-07-28T04:21:54;7.07;;;4.07;;
37049;SDS011;22958;51.232;6.826;2023-07-28T04:24:21;5.10;;;3.63;;
37049;SDS011;22958;51.232;6.826;2023-07-28T04:26:47;7.53;;;3.57;;
37049;SDS011;22958;51.232;6.826;2023-07-28T04:29:14;6.53;;;3.30;;
37049;SDS011;22958;51.232;6.826;2023-07-28T04:31:39;6.10;;;3.33;;
37049;SDS011;22958;51.232;6.826;2023-07-28T04:34:05;4.73;;;3.37;;
37049;SDS011;22958;51.232;6.826;2023-07-28T04:36:30;5.63;;;3.87;;
37049;SDS011;22958;51.232;6.826;2023-07-28T04:38:56;5.23;;;3.07;;
37049;SDS011;22958;51.232;6.826;2023-07-28T04:41:21;5.17;;;2.70;;
37049;SDS011;22958;51.232;6.826;2023-07-28T04:43:47;5.20;;;2.93;;
37049;SDS011;22958;51.232;6.826;2023-07-28T04:46:12;5.43;;;3.23;;
37049;SDS011;22958;51.232;6.826;2023-07-28T04:48:38;6.13;;;2.67;;
37049;SDS011;22958;51.232;6.826;2023-07-28T04:51:03;5.43;;;2.63;;
37049;SDS011;22958;51.232;6.826;2023-07-28T04:53:29;5.80;;;2.80;;
37049;SDS011;22958;51.232;6.826;2023-07-28T04:55:54;5.00;;;2.87;;
37049;SDS011;22958;51.232;6.826;2023-07-28T04:58:20;5.10;;;3.13;;
37049;SDS011;22958;51.232;6.826;2023-07-28T05:00:46;6.20;;;2.92;;
37049;SDS011;22958;51.232;6.826;2023-07-28T05:03:11;5.00;;;2.70;;
37049;SDS011;22958;51.232;6.826;2023-07-28T05:05:37;4.33;;;3.00;;
37049;SDS011;22958;51.232;6.826;2023-07-28T05:08:02;6.93;;;3.20;;
37049;SDS011;22958;51.232;6.826;2023-07-28T05:10:28;9.20;;;3.40;;
37049;SDS011;22958;51.232;6.826;2023-07-28T05:12:54;8.97;;;3.83;;
37049;SDS011;22958;51.232;6.826;2023-07-28T05:15:19;9.53;;;4.37;;
37049;SDS011;22958;51.232;6.826;2023-07-28T05:17:45;8.23;;;3.70;;
37049;SDS011;22958;51.232;6.826;2023-07-28T05:20:10;6.47;;;3.90;;
37049;SDS011;22958;51.232;6.826;2023-07-28T05:22:36;9.50;;;3.63;;
37049;SDS011;22958;51.232;6.826;2023-07-28T05:25:02;9.97;;;3.90;;
37049;SDS011;22958;51.232;6.826;2023-07-28T05:27:27;7.93;;;3.97;;
37049;SDS011;22958;51.232;6.826;2023-07-28T05:29:53;17.80;;;4.33;;
37049;SDS011;22958;51.232;6.826;2023-07-28T05:32:18;8.00;;;3.77;;
37049;SDS011;22958;51.232;6.826;2023-07-28T05:34:44;9.67;;;4.30;;
37049;SDS011;22958;51.232;6.826;2023-07-28T05:37:09;8.80;;;4.43;;
37049;SDS011;22958;51.232;6.826;2023-07-28T05:39:35;7.55;;;3.80;;
37049;SDS011;22958;51.232;6.826;2023-07-28T05:42:01;6.70;;;4.37;;
37049;SDS011;22958;51.232;6.826;2023-07-28T05:44:27;11.00;;;4.60;;
37049;SDS011;22958;51.232;6.826;2023-07-28T05:46:53;7.75;;;4.32;;
37049;SDS011;22958;51.232;6.826;2023-07-28T05:49:18;6.67;;;4.17;;
37049;SDS011;22958;51.232;6.826;2023-07-28T05:51:44;11.80;;;4.03;;
37049;SDS011;22958;51.232;6.826;2023-07-28T05:54:09;6.63;;;3.77;;
37049;SDS011;22958;51.232;6.826;2023-07-28T05:56:35;9.00;;;3.80;;
37049;SDS011;22958;51.232;6.826;2023-07-28T05:59:00;10.53;;;4.20;;
37049;SDS011;22958;51.232;6.826;2023-07-28T06:01:25;11.70;;;4.30;;
37049;SDS011;22958;51.232;6.826;2023-07-28T06:03:52;11.30;;;4.40;;
37049;SDS011;22958;51.232;6.826;2023-07-28T06:06:20;7.05;;;4.53;;
37049;SDS011;22958;51.232;6.826;2023-07-28T06:08:47;12.77;;;4.63;;
37049;SDS011;22958;51.232;6.826;2023-07-28T06:11:12;13.20;;;5.13;;
37049;SDS011;22958;51.232;6.826;2023-07-28T06:13:37;14.13;;;5.87;;
37049;SDS011;22958;51.232;6.826;2023-07-28T06:16:03;9.00;;;5.00;;
37049;SDS011;22958;51.232;6.826;2023-07-28T06:18:29;10.80;;;5.10;;
37049;SDS011;22958;51.232;6.826;2023-07-28T06:20:54;11.60;;;4.90;;
37049;SDS011;22958;51.232;6.826;2023-07-28T06:23:20;7.43;;;4.63;;
37049;SDS011;22958;51.232;6.826;2023-07-28T06:25:45;10.27;;;4.83;;
37049;SDS011;22958;51.232;6.826;2023-07-28T06:28:11;8.43;;;4.57;;
37049;SDS011;22958;51.232;6.826;2023-07-28T06:30:37;12.00;;;4.97;;
37049;SDS011;22958;51.232;6.826;2023-07-28T06:33:04;7.50;;;5.00;;
37049;SDS011;22958;51.232;6.826;2023-07-28T06:35:34;11.18;;;5.60;;
37049;SDS011;22958;51.232;6.826;2023-07-28T06:38:00;11.30;;;4.93;;
37049;SDS011;22958;51.232;6.826;2023-07-28T06:40:26;10.68;;;4.45;;
37049;SDS011;22958;51.232;6.826;2023-07-28T06:42:51;11.37;;;5.03;;
37049;SDS011;22958;51.232;6.826;2023-07-28T06:45:17;12.33;;;5.50;;
37049;SDS011;22958;51.232;6.826;2023-07-28T06:47:42;11.37;;;5.33;;
37049;SDS011;22958;51.232;6.826;2023-07-28T06:50:10;11.15;;;5.57;;
37049;SDS011;22958;51.232;6.826;2023-07-28T06:52:36;13.77;;;5.32;;
37049;SDS011;22958;51.232;6.826;2023-07-28T06:55:02;14.70;;;5.27;;
37049;SDS011;22958;51.232;6.826;2023-07-28T06:57:28;10.57;;;4.80;;
37049;SDS011;22958;51.232;6.826;2023-07-28T06:59:55;21.42;;;4.57;;
37049;SDS011;22958;51.232;6.826;2023-07-28T07:02:21;12.53;;;5.20;;
37049;SDS011;22958;51.232;6.826;2023-07-28T07:04:46;11.20;;;4.77;;
37049;SDS011;22958;51.232;6.826;2023-07-28T07:07:12;10.03;;;4.23;;
37049;SDS011;22958;51.232;6.826;2023-07-28T07:09:37;11.40;;;4.77;;
37049;SDS011;22958;51.232;6.826;2023-07-28T07:12:03;9.30;;;4.40;;
37049;SDS011;22958;51.232;6.826;2023-07-28T07:14:29;8.13;;;4.70;;
37049;SDS011;22958;51.232;6.826;2023-07-28T07:16:54;8.03;;;4.60;;
37049;SDS011;22958;51.232;6.826;2023-07-28T07:19:20;9.87;;;4.17;;
37049;SDS011;22958;51.232;6.826;2023-07-28T07:21:45;7.87;;;4.17;;
37049;SDS011;22958;51.232;6.826;2023-07-28T07:24:12;9.13;;;4.68;;
37049;SDS011;22958;51.232;6.826;2023-07-28T07:26:41;8.13;;;4.78;;
37049;SDS011;22958;51.232;6.826;2023-07-28T07:29:07;7.73;;;4.20;;
37049;SDS011;22958;51.232;6.826;2023-07-28T07:31:34;11.68;;;5.13;;
37049;SDS011;22958;51.232;6.826;2023-07-28T07:33:59;6.70;;;4.50;;
37049;SDS011;22958;51.232;6.826;2023-07-28T07:36:25;11.63;;;4.97;;
37049;SDS011;22958;51.232;6.826;2023-07-28T07:38:51;8.80;;;4.50;;
37049;SDS011;22958;51.232;6.826;2023-07-28T07:41:17;9.52;;;3.60;;
37049;SDS011;22958;51.232;6.826;2023-07-28T07:43:46;7.72;;;3.58;;
37049;SDS011;22958;51.232;6.826;2023-07-28T07:48:38;7.78;;;3.67;;
37049;SDS011;22958;51.232;6.826;2023-07-28T07:51:04;8.37;;;3.20;;
37049;SDS011;22958;51.232;6.826;2023-07-28T07:53:29;6.13;;;3.60;;
37049;SDS011;22958;51.232;6.826;2023-07-28T07:55:55;5.03;;;3.63;;
37049;SDS011;22958;51.232;6.826;2023-07-28T07:58:20;5.07;;;3.73;;
37049;SDS011;22958;51.232;6.826;2023-07-28T08:00:46;5.57;;;3.57;;
37049;SDS011;22958;51.232;6.826;2023-07-28T08:03:11;15.93;;;4.23;;
37049;SDS011;22958;51.232;6.826;2023-07-28T08:05:37;10.03;;;4.47;;
37049;SDS011;22958;51.232;6.826;2023-07-28T08:08:02;9.63;;;4.03;;
37049;SDS011;22958;51.232;6.826;2023-07-28T08:10:30;8.65;;;4.30;;
37049;SDS011;22958;51.232;6.826;2023-07-28T08:12:55;9.23;;;4.20;;
37049;SDS011;22958;51.232;6.826;2023-07-28T08:15:21;9.83;;;4.30;;
37049;SDS011;22958;51.232;6.826;2023-07-28T08:17:46;9.57;;;4.03;;
37049;SDS011;22958;51.232;6.826;2023-07-28T08:20:12;8.77;;;4.43;;
37049;SDS011;22958;51.232;6.826;2023-07-28T08:22:37;12.70;;;4.90;;
37049;SDS011;22958;51.232;6.826;2023-07-28T08:25:04;8.80;;;4.00;;
37049;SDS011;22958;51.232;6.826;2023-07-28T08:27:30;8.93;;;4.50;;
37049;SDS011;22958;51.232;6.826;2023-07-28T08:29:55;6.50;;;4.33;;
37049;SDS011;22958;51.232;6.826;2023-07-28T08:32:21;15.60;;;4.70;;
37049;SDS011;22958;51.232;6.826;2023-07-28T08:34:47;8.75;;;4.50;;
37049;SDS011;22958;51.232;6.826;2023-07-28T08:37:12;7.43;;;4.65;;
37049;SDS011;22958;51.232;6.826;2023-07-28T08:39:38;17.73;;;4.70;;
37049;SDS011;22958;51.232;6.826;2023-07-28T08:42:04;8.13;;;4.37;;
37049;SDS011;22958;51.232;6.826;2023-07-28T08:44:30;11.50;;;5.13;;
37049;SDS011;22958;51.232;6.826;2023-07-28T08:46:57;7.93;;;4.63;;
37049;SDS011;22958;51.232;6.826;2023-07-28T08:49:23;13.88;;;4.65;;
37049;SDS011;22958;51.232;6.826;2023-07-28T08:51:49;10.03;;;5.37;;
37049;SDS011;22958;51.232;6.826;2023-07-28T08:54:15;11.98;;;4.80;;
37049;SDS011;22958;51.232;6.826;2023-07-28T08:56:42;8.27;;;3.97;;
37049;SDS011;22958;51.232;6.826;2023-07-28T08:59:08;12.80;;;4.70;;
37049;SDS011;22958;51.232;6.826;2023-07-28T09:01:38;4.55;;;3.70;;
37049;SDS011;22958;51.232;6.826;2023-07-28T09:04:11;10.63;;;4.18;;
37049;SDS011;22958;51.232;6.826;2023-07-28T09:06:37;7.13;;;3.97;;
37049;SDS011;22958;51.232;6.826;2023-07-28T09:09:06;13.15;;;3.80;;
37049;SDS011;22958;51.232;6.826;2023-07-28T09:11:32;15.13;;;4.15;;
37049;SDS011;22958;51.232;6.826;2023-07-28T09:13:59;6.70;;;4.23;;
37049;SDS011;22958;51.232;6.826;2023-07-28T09:16:25;7.50;;;3.90;;
37049;SDS011;22958;51.232;6.826;2023-07-28T09:18:51;7.00;;;3.83;;
37049;SDS011;22958;51.232;6.826;2023-07-28T09:21:32;6.65;;;3.17;;
37049;SDS011;22958;51.232;6.826;2023-07-28T09:24:05;16.90;;;4.72;;
37049;SDS011;22958;51.232;6.826;2023-07-28T09:26:42;9.77;;;3.70;;
37049;SDS011;22958;51.232;6.826;2023-07-28T09:29:17;9.07;;;3.53;;
37049;SDS011;22958;51.232;6.826;2023-07-28T09:31:44;8.07;;;3.40;;
37049;SDS011;22958;51.232;6.826;2023-07-28T09:34:10;13.07;;;2.63;;
37049;SDS011;22958;51.232;6.826;2023-07-28T09:36:36;9.07;;;3.50;;
37049;SDS011;22958;51.232;6.826;2023-07-28T09:39:03;6.95;;;2.78;;
37049;SDS011;22958;51.232;6.826;2023-07-28T09:41:36;6.88;;;2.42;;
37049;SDS011;22958;51.232;6.826;2023-07-28T09:44:03;5.13;;;3.00;;
37049;SDS011;22958;51.232;6.826;2023-07-28T09:46:29;4.68;;;2.83;;
37049;SDS011;22958;51.232;6.826;2023-07-28T09:48:57;7.30;;;3.00;;
37049;SDS011;22958;51.232;6.826;2023-07-28T09:51:27;5.38;;;2.10;;
37049;SDS011;22958;51.232;6.826;2023-07-28T09:53:56;13.38;;;3.08;;
37049;SDS011;22958;51.232;6.826;2023-07-28T09:56:27;3.17;;;2.25;;
37049;SDS011;22958;51.232;6.826;2023-07-28T09:58:54;4.95;;;2.25;;
37049;SDS011;22958;51.232;6.826;2023-07-28T10:01:22;5.00;;;2.13;;
37049;SDS011;22958;51.232;6.826;2023-07-28T10:03:49;6.25;;;1.90;;
37049;SDS011;22958;51.232;6.826;2023-07-28T10:08:44;3.40;;;1.70;;
37049;SDS011;22958;51.232;6.826;2023-07-28T10:11:14;5.13;;;1.80;;
37049;SDS011;22958;51.232;6.826;2023-07-28T10:13:44;7.18;;;1.40;;
37049;SDS011;22958;51.232;6.826;2023-07-28T10:16:11;4.35;;;1.98;;
37049;SDS011;22958;51.232;6.826;2023-07-28T10:18:39;5.50;;;1.60;;
37049;SDS011;22958;51.232;6.826;2023-07-28T10:21:09;3.13;;;1.50;;
37049;SDS011;22958;51.232;6.826;2023-07-28T10:23:40;7.05;;;1.55;;
37049;SDS011;22958;51.232;6.826;2023-07-28T10:26:06;6.83;;;1.37;;
37049;SDS011;22958;51.232;6.826;2023-07-28T10:28:38;3.00;;;1.40;;
37049;SDS011;22958;51.232;6.826;2023-07-28T10:31:07;4.50;;;1.20;;
37049;SDS011;22958;51.232;6.826;2023-07-28T10:33:36;2.13;;;1.33;;
37049;SDS011;22958;51.232;6.826;2023-07-28T10:36:13;4.68;;;1.40;;
37049;SDS011;22958;51.232;6.826;2023-07-28T10:38:39;2.78;;;1.45;;
37049;SDS011;22958;51.232;6.826;2023-07-28T10:41:06;3.72;;;1.63;;
37049;SDS011;22958;51.232;6.826;2023-07-28T10:43:32;8.30;;;1.77;;
37049;SDS011;22958;51.232;6.826;2023-07-28T10:45:58;5.70;;;2.17;;
37049;SDS011;22958;51.232;6.826;2023-07-28T10:48:25;4.05;;;2.45;;
37049;SDS011;22958;51.232;6.826;2023-07-28T10:50:50;9.60;;;2.67;;
37049;SDS011;22958;51.232;6.826;2023-07-28T10:53:16;8.38;;;2.10;;
37049;SDS011;22958;51.232;6.826;2023-07-28T10:55:42;6.40;;;1.63;;
37049;SDS011;22958;51.232;6.826;2023-07-28T10:58:07;2.90;;;1.90;;
37049;SDS011;22958;51.232;6.826;2023-07-28T11:00:33;3.73;;;2.20;;
37049;SDS011;22958;51.232;6.826;2023-07-28T11:02:58;5.20;;;2.23;;
37049;SDS011;22958;51.232;6.826;2023-07-28T11:05:25;5.90;;;1.90;;
37049;SDS011;22958;51.232;6.826;2023-07-28T11:07:56;2.28;;;1.50;;
37049;SDS011;22958;51.232;6.826;2023-07-28T11:10:23;3.88;;;1.70;;
37049;SDS011;22958;51.232;6.826;2023-07-28T11:15:16;2.30;;;1.60;;
37049;SDS011;22958;51.232;6.826;2023-07-28T11:17:47;2.38;;;1.42;;
37049;SDS011;22958;51.232;6.826;2023-07-28T11:20:18;1.38;;;0.98;;
37049;SDS011;22958;51.232;6.826;2023-07-28T11:22:46;5.78;;;0.93;;
37049;SDS011;22958;51.232;6.826;2023-07-28T11:25:17;2.13;;;0.88;;
37049;SDS011;22958;51.232;6.826;2023-07-28T11:27:44;2.00;;;1.00;;
37049;SDS011;22958;51.232;6.826;2023-07-28T11:30:11;1.35;;;0.90;;
37049;SDS011;22958;51.232;6.826;2023-07-28T11:35:07;6.70;;;1.10;;
37049;SDS011;22958;51.232;6.826;2023-07-28T11:37:34;3.50;;;0.80;;
37049;SDS011;22958;51.232;6.826;2023-07-28T11:40:01;2.13;;;1.08;;
37049;SDS011;22958;51.232;6.826;2023-07-28T11:42:31;2.55;;;1.13;;
37049;SDS011;22958;51.232;6.826;2023-07-28T11:45:02;4.68;;;1.00;;
37049;SDS011;22958;51.232;6.826;2023-07-28T11:47:29;2.00;;;1.30;;
37049;SDS011;22958;51.232;6.826;2023-07-28T11:49:55;5.40;;;1.27;;
37049;SDS011;22958;51.232;6.826;2023-07-28T11:52:23;2.85;;;1.65;;
37049;SDS011;22958;51.232;6.826;2023-07-28T11:54:59;8.15;;;2.08;;
37049;SDS011;22958;51.232;6.826;2023-07-28T11:57:25;4.18;;;1.90;;
37049;SDS011;22958;51.232;6.826;2023-07-28T12:02:24;3.95;;;1.50;;
37049;SDS011;22958;51.232;6.826;2023-07-28T12:04:53;3.30;;;1.60;;
37049;SDS011;22958;51.232;6.826;2023-07-28T12:07:28;1.50;;;1.38;;
37049;SDS011;22958;51.232;6.826;2023-07-28T12:09:55;6.18;;;1.10;;
37049;SDS011;22958;51.232;6.826;2023-07-28T12:12:25;4.38;;;1.05;;
37049;SDS011;22958;51.232;6.826;2023-07-28T12:14:53;1.30;;;1.00;;
37049;SDS011;22958;51.232;6.826;2023-07-28T12:17:20;4.97;;;1.13;;
37049;SDS011;22958;51.232;6.826;2023-07-28T12:20:01;4.97;;;0.85;;
37049;SDS011;22958;51.232;6.826;2023-07-28T12:22:35;2.65;;;1.10;;
37049;SDS011;22958;51.232;6.826;2023-07-28T12:25:01;0.63;;;0.50;;
37049;SDS011;22958;51.232;6.826;2023-07-28T12:27:27;2.33;;;0.70;;
37049;SDS011;22958;51.232;6.826;2023-07-28T12:29:52;4.03;;;1.47;;
37049;SDS011;22958;51.232;6.826;2023-07-28T12:32:18;1.37;;;0.90;;
37049;SDS011;22958;51.232;6.826;2023-07-28T12:34:44;1.80;;;0.60;;
37049;SDS011;22958;51.232;6.826;2023-07-28T12:37:09;3.20;;;0.80;;
37049;SDS011;22958;51.232;6.826;2023-07-28T12:39:36;3.55;;;0.68;;
37049;SDS011;22958;51.232;6.826;2023-07-28T12:42:04;1.60;;;0.95;;
37049;SDS011;22958;51.232;6.826;2023-07-28T12:44:34;3.45;;;0.90;;
37049;SDS011;22958;51.232;6.826;2023-07-28T12:46:59;2.25;;;0.90;;
37049;SDS011;22958;51.232;6.826;2023-07-28T12:49:25;1.53;;;1.03;;
37049;SDS011;22958;51.232;6.826;2023-07-28T12:51:51;1.93;;;1.10;;
37049;SDS011;22958;51.232;6.826;2023-07-28T12:54:16;1.20;;;0.90;;
37049;SDS011;22958;51.232;6.826;2023-07-28T12:56:42;1.33;;;1.00;;
37049;SDS011;22958;51.232;6.826;2023-07-28T12:59:08;1.13;;;0.98;;
37049;SDS011;22958;51.232;6.826;2023-07-28T13:01:34;1.98;;;0.90;;
37049;SDS011;22958;51.232;6.826;2023-07-28T13:04:02;2.33;;;1.02;;
37049;SDS011;22958;51.232;6.826;2023-07-28T13:06:27;2.53;;;1.33;;
37049;SDS011;22958;51.232;6.826;2023-07-28T13:08:53;1.23;;;1.07;;
37049;SDS011;22958;51.232;6.826;2023-07-28T13:11:18;2.93;;;1.10;;
37049;SDS011;22958;51.232;6.826;2023-07-28T13:13:44;2.97;;;1.27;;
37049;SDS011;22958;51.232;6.826;2023-07-28T13:16:09;1.53;;;0.90;;
37049;SDS011;22958;51.232;6.826;2023-07-28T13:18:35;2.55;;;1.17;;
37049;SDS011;22958;51.232;6.826;2023-07-28T13:21:01;6.87;;;1.20;;
37049;SDS011;22958;51.232;6.826;2023-07-28T13:23:26;6.57;;;1.77;;
37049;SDS011;22958;51.232;6.826;2023-07-28T13:25:52;1.77;;;1.47;;
37049;SDS011;22958;51.232;6.826;2023-07-28T13:28:17;1.97;;;1.47;;
37049;SDS011;22958;51.232;6.826;2023-07-28T13:30:43;1.45;;;1.00;;
37049;SDS011;22958;51.232;6.826;2023-07-28T13:33:09;2.10;;;0.97;;
37049;SDS011;22958;51.232;6.826;2023-07-28T13:35:34;1.23;;;0.80;;
37049;SDS011;22958;51.232;6.826;2023-07-28T13:38:00;1.33;;;0.80;;
37049;SDS011;22958;51.232;6.826;2023-07-28T13:40:25;2.20;;;1.20;;
37049;SDS011;22958;51.232;6.826;2023-07-28T13:42:51;1.63;;;0.90;;
37049;SDS011;22958;51.232;6.826;2023-07-28T13:45:16;1.30;;;0.97;;
37049;SDS011;22958;51.232;6.826;2023-07-28T13:47:42;2.77;;;1.00;;
37049;SDS011;22958;51.232;6.826;2023-07-28T13:50:07;1.23;;;0.73;;
37049;SDS011;22958;51.232;6.826;2023-07-28T13:52:33;1.03;;;0.63;;
37049;SDS011;22958;51.232;6.826;2023-07-28T13:54:58;1.23;;;0.80;;
37049;SDS011;22958;51.232;6.826;2023-07-28T13:57:24;1.50;;;0.80;;
37049;SDS011;22958;51.232;6.826;2023-07-28T13:59:49;1.80;;;0.90;;
37049;SDS011;22958;51.232;6.826;2023-07-28T14:02:18;2.37;;;0.90;;
37049;SDS011;22958;51.232;6.826;2023-07-28T14:04:43;2.58;;;1.10;;
37049;SDS011;22958;51.232;6.826;2023-07-28T14:07:09;1.10;;;0.87;;
37049;SDS011;22958;51.232;6.826;2023-07-28T14:09:35;2.15;;;1.25;;
37049;SDS011;22958;51.232;6.826;2023-07-28T14:12:02;2.50;;;1.20;;
37049;SDS011;22958;51.232;6.826;2023-07-28T14:14:28;2.67;;;1.23;;
37049;SDS011;22958;51.232;6.826;2023-07-28T14:16:53;3.50;;;1.83;;
37049;SDS011;22958;51.232;6.826;2023-07-28T14:19:19;6.33;;;1.10;;
37049;SDS011;22958;51.232;6.826;2023-07-28T14:21:44;3.10;;;1.77;;
37049;SDS011;22958;51.232;6.826;2023-07-28T14:24:10;1.57;;;1.07;;
37049;SDS011;22958;51.232;6.826;2023-07-28T14:26:36;2.25;;;0.90;;
37049;SDS011;22958;51.232;6.826;2023-07-28T14:29:01;2.00;;;1.40;;
37049;SDS011;22958;51.232;6.826;2023-07-28T14:31:27;1.80;;;1.10;;
37049;SDS011;22958;51.232;6.826;2023-07-28T14:33:53;1.67;;;1.00;;
37049;SDS011;22958;51.232;6.826;2023-07-28T14:36:18;2.23;;;1.20;;
37049;SDS011;22958;51.232;6.826;2023-07-28T14:38:44;4.53;;;1.10;;
37049;SDS011;22958;51.232;6.826;2023-07-28T14:41:09;2.67;;;1.13;;
37049;SDS011;22958;51.232;6.826;2023-07-28T14:43:35;3.10;;;1.50;;
37049;SDS011;22958;51.232;6.826;2023-07-28T14:46:00;1.80;;;0.97;;
37049;SDS011;22958;51.232;6.826;2023-07-28T14:48:26;2.07;;;1.10;;
37049;SDS011;22958;51.232;6.826;2023-07-28T14:50:51;1.92;;;0.95;;
37049;SDS011;22958;51.232;6.826;2023-07-28T14:55:59;1.08;;;0.98;;
37049;SDS011;22958;51.232;6.826;2023-07-28T14:58:25;2.15;;;0.85;;
37049;SDS011;22958;51.232;6.826;2023-07-28T15:03:17;0.95;;;0.68;;
37049;SDS011;22958;51.232;6.826;2023-07-28T15:05:43;3.50;;;1.00;;
37049;SDS011;22958;51.232;6.826;2023-07-28T15:08:08;1.33;;;0.80;;